createdAt,value
2018-07-02T00:00:55.202Z,991.95
2018-07-02T00:02:05.125Z,991.99
2018-07-02T00:03:14.713Z,991.99
2018-07-02T00:04:24.963Z,992
2018-07-02T00:05:35.221Z,992
2018-07-02T00:06:45.179Z,991.96
2018-07-02T00:07:55.737Z,991.94
2018-07-02T00:09:06.009Z,991.94
2018-07-02T00:10:16.873Z,991.95
2018-07-02T00:11:28.846Z,991.95
2018-07-02T00:12:40.228Z,991.97
2018-07-02T00:13:50.891Z,991.95
2018-07-02T00:15:00.812Z,991.95
2018-07-02T00:16:10.733Z,991.95
2018-07-02T00:17:20.444Z,991.92
2018-07-02T00:18:30.391Z,991.97
2018-07-02T00:19:40.291Z,991.9
2018-07-02T00:20:50.483Z,991.92
2018-07-02T00:22:00.726Z,991.96
2018-07-02T00:23:10.657Z,991.96
2018-07-02T00:24:21.446Z,991.93
2018-07-02T00:25:31.346Z,991.91
2018-07-02T00:26:41.676Z,991.86
2018-07-02T00:27:51.005Z,991.85
2018-07-02T00:29:01.283Z,991.85
2018-07-02T00:30:11.236Z,991.84
2018-07-02T00:31:21.148Z,991.87
2018-07-02T00:32:30.806Z,991.87
2018-07-02T00:33:41.250Z,991.87
2018-07-02T00:34:51.197Z,991.87
2018-07-02T00:36:00.814Z,991.84
2018-07-02T00:37:10.463Z,991.85
2018-07-02T00:38:20.767Z,991.82
2018-07-02T00:39:31.756Z,991.84
2018-07-02T00:40:41.473Z,991.86
2018-07-02T00:41:51.717Z,991.88
2018-07-02T00:43:01.340Z,991.83
2018-07-02T00:44:10.975Z,991.82
2018-07-02T00:45:21.759Z,991.85
2018-07-02T00:46:32.284Z,991.83
2018-07-02T00:47:42.454Z,991.83
2018-07-02T00:48:52.051Z,991.82
2018-07-02T00:50:03.136Z,991.86
2018-07-02T00:51:13.038Z,991.85
2018-07-02T00:52:23.046Z,991.84
2018-07-02T00:53:32.714Z,991.89
2018-07-02T00:54:42.048Z,991.87
2018-07-02T00:55:53.981Z,991.84
2018-07-02T00:57:04.820Z,991.85
2018-07-02T00:58:15.134Z,991.78
2018-07-02T00:59:25.412Z,991.77
2018-07-02T01:00:35.633Z,991.81
2018-07-02T01:01:45.851Z,991.76
2018-07-02T01:02:57.541Z,991.79
2018-07-02T01:04:07.767Z,991.73
2018-07-02T01:05:17.674Z,991.73
2018-07-02T01:06:27.917Z,991.72
2018-07-02T01:07:37.842Z,991.71
2018-07-02T01:08:48.099Z,991.74
2018-07-02T01:09:59.927Z,991.71
2018-07-02T01:11:09.834Z,991.74
2018-07-02T01:12:20.044Z,991.73
2018-07-02T01:13:29.963Z,991.71
2018-07-02T01:14:39.889Z,991.71
2018-07-02T01:15:51.285Z,991.72
2018-07-02T01:17:01.519Z,991.7
2018-07-02T01:18:11.455Z,991.74
2018-07-02T01:19:21.391Z,991.68
2018-07-02T01:20:31.288Z,991.72
2018-07-02T01:21:42.576Z,991.73
2018-07-02T01:22:53.806Z,991.67
2018-07-02T01:24:04.017Z,991.67
2018-07-02T01:25:13.626Z,991.64
2018-07-02T01:26:23.848Z,991.65
2018-07-02T01:27:35.030Z,991.64
2018-07-02T01:28:46.454Z,991.61
2018-07-02T01:29:56.436Z,991.62
2018-07-02T01:31:06.719Z,991.59
2018-07-02T01:32:16.654Z,991.57
2018-07-02T01:33:27.379Z,991.58
2018-07-02T01:34:37.639Z,991.61
2018-07-02T01:35:47.917Z,991.62
2018-07-02T01:36:57.881Z,991.64
2018-07-02T01:38:07.503Z,991.62
2018-07-02T01:39:17.187Z,991.67
2018-07-02T01:40:29.363Z,991.64
2018-07-02T01:41:38.676Z,991.59
2018-07-02T01:42:48.880Z,991.63
2018-07-02T01:43:59.109Z,991.58
2018-07-02T01:45:10.810Z,991.59
2018-07-02T01:46:21.512Z,991.65
2018-07-02T01:47:31.787Z,991.62
2018-07-02T01:48:41.700Z,991.67
2018-07-02T01:49:51.916Z,991.67
2018-07-02T01:51:04.141Z,991.68
2018-07-02T01:52:15.386Z,991.7
2018-07-02T01:53:25.012Z,991.7
2018-07-02T01:54:35.222Z,991.68
2018-07-02T01:55:45.128Z,991.65
2018-07-02T01:56:55.388Z,991.66
2018-07-02T01:58:07.079Z,991.67
2018-07-02T01:59:18.747Z,991.62
2018-07-02T02:00:28.343Z,991.63
2018-07-02T02:01:38.246Z,991.65
2018-07-02T02:02:48.460Z,991.64
2018-07-02T02:03:58.607Z,991.65
2018-07-02T02:05:08.785Z,991.62
2018-07-02T02:06:18.944Z,991.64
2018-07-02T02:07:29.750Z,991.66
2018-07-02T02:08:42.376Z,991.63
2018-07-02T02:09:53.929Z,991.66
2018-07-02T02:11:03.816Z,991.65
2018-07-02T02:12:13.723Z,991.65
2018-07-02T02:13:23.878Z,991.62
2018-07-02T02:14:34.129Z,991.61
2018-07-02T02:15:44.012Z,991.63
2018-07-02T02:16:54.188Z,991.63
2018-07-02T02:18:04.847Z,991.63
2018-07-02T02:19:16.741Z,991.64
2018-07-02T02:20:27.427Z,991.63
2018-07-02T02:21:37.345Z,991.61
2018-07-02T02:22:47.596Z,991.63
2018-07-02T02:23:58.094Z,991.59
2018-07-02T02:25:07.968Z,991.63
2018-07-02T02:26:17.881Z,991.65
2018-07-02T02:27:27.765Z,991.59
2018-07-02T02:28:38.767Z,991.58
2018-07-02T02:29:50.305Z,991.56
2018-07-02T02:31:02.249Z,991.52
2018-07-02T02:32:12.245Z,991.55
2018-07-02T02:33:22.178Z,991.52
2018-07-02T02:34:32.056Z,991.55
2018-07-02T02:35:42.198Z,991.58
2018-07-02T02:36:52.372Z,991.6
2018-07-02T02:38:01.994Z,991.58
2018-07-02T02:39:11.309Z,991.56
2018-07-02T02:40:23.444Z,991.58
2018-07-02T02:41:35.035Z,991.52
2018-07-02T02:42:44.930Z,991.49
2018-07-02T02:43:55.208Z,991.52
2018-07-02T02:45:05.092Z,991.52
2018-07-02T02:46:14.986Z,991.53
2018-07-02T02:47:24.884Z,991.58
2018-07-02T02:48:35.067Z,991.56
2018-07-02T02:49:45.833Z,991.59
2018-07-02T02:50:58.260Z,991.61
2018-07-02T02:52:08.872Z,991.59
2018-07-02T02:53:18.478Z,991.59
2018-07-02T02:54:28.651Z,991.6
2018-07-02T02:55:38.594Z,991.65
2018-07-02T02:56:48.437Z,991.61
2018-07-02T02:57:58.347Z,991.64
2018-07-02T02:59:08.527Z,991.65
2018-07-02T03:04:33.014Z,991.55
2018-07-02T03:05:43.239Z,991.57
2018-07-02T03:06:53.166Z,991.55
2018-07-02T03:08:04.974Z,991.56
2018-07-02T03:09:16.930Z,991.57
2018-07-02T03:10:27.796Z,991.48
2018-07-02T03:11:38.016Z,991.48
2018-07-02T03:12:47.910Z,991.49
2018-07-02T03:13:58.096Z,991.45
2018-07-02T03:15:08.333Z,991.47
2018-07-02T03:16:18.505Z,991.51
2018-07-02T03:17:28.396Z,991.48
2018-07-02T03:18:39.254Z,991.45
2018-07-02T03:19:51.817Z,991.5
2018-07-02T03:21:03.670Z,991.45
2018-07-02T03:22:13.533Z,991.46
2018-07-02T03:23:23.153Z,991.45
2018-07-02T03:24:32.740Z,991.43
2018-07-02T03:25:42.938Z,991.45
2018-07-02T03:26:52.882Z,991.44
2018-07-02T03:28:02.791Z,991.42
2018-07-02T03:29:13.219Z,991.42
2018-07-02T03:30:24.992Z,991.41
2018-07-02T03:31:37.209Z,991.44
2018-07-02T03:32:47.140Z,991.46
2018-07-02T03:33:57.304Z,991.48
2018-07-02T03:35:06.907Z,991.42
2018-07-02T03:36:17.062Z,991.41
2018-07-02T03:37:26.942Z,991.4
2018-07-02T03:38:37.265Z,991.44
2018-07-02T03:39:48.560Z,991.38
2018-07-02T03:40:59.890Z,991.44
2018-07-02T03:42:09.761Z,991.41
2018-07-02T03:43:19.941Z,991.42
2018-07-02T03:44:30.355Z,991.38
2018-07-02T03:45:40.234Z,991.35
2018-07-02T03:46:50.119Z,991.3
2018-07-02T03:48:00.347Z,991.32
2018-07-02T03:49:12.961Z,991.3
2018-07-02T03:50:24.833Z,991.3
2018-07-02T03:51:35.005Z,991.35
2018-07-02T03:52:44.597Z,991.33
2018-07-02T03:53:54.495Z,991.36
2018-07-02T03:55:04.374Z,991.34
2018-07-02T03:56:14.603Z,991.36
2018-07-02T03:57:24.502Z,991.36
2018-07-02T03:58:36.387Z,991.38
2018-07-02T03:59:46.113Z,991.39
2018-07-02T04:00:56.301Z,991.42
2018-07-02T04:02:05.955Z,991.41
2018-07-02T04:03:15.543Z,991.41
2018-07-02T04:04:25.468Z,991.42
2018-07-02T04:05:35.663Z,991.42
2018-07-02T04:06:45.411Z,991.41
2018-07-02T04:07:57.400Z,991.39
2018-07-02T04:09:08.621Z,991.42
2018-07-02T04:10:19.058Z,991.37
2018-07-02T04:11:29.229Z,991.37
2018-07-02T04:12:39.130Z,991.41
2018-07-02T04:13:49.075Z,991.41
2018-07-02T04:14:59.214Z,991.4
2018-07-02T04:16:09.830Z,991.44
2018-07-02T04:17:20.512Z,991.4
2018-07-02T04:18:30.419Z,991.39
2018-07-02T04:19:41.834Z,991.39
2018-07-02T04:20:51.986Z,991.43
2018-07-02T04:22:02.557Z,991.37
2018-07-02T04:23:12.432Z,991.43
2018-07-02T04:24:25.457Z,991.37
2018-07-02T04:25:35.720Z,991.4
2018-07-02T04:26:46.128Z,991.4
2018-07-02T04:27:56.784Z,991.39
2018-07-02T04:29:06.670Z,991.37
2018-07-02T04:30:16.551Z,991.34
2018-07-02T04:31:26.795Z,991.38
2018-07-02T04:32:36.119Z,991.4
2018-07-02T04:33:46.012Z,991.39
2018-07-02T04:34:57.730Z,991.34
2018-07-02T04:36:08.114Z,991.37
2018-07-02T04:37:17.752Z,991.36
2018-07-02T04:38:27.645Z,991.43
2018-07-02T04:39:37.850Z,991.4
2018-07-02T04:40:47.436Z,991.4
2018-07-02T04:41:57.850Z,991.43
2018-07-02T04:43:08.098Z,991.39
2018-07-02T04:44:19.783Z,991.43
2018-07-02T04:45:33.023Z,991.39
2018-07-02T04:46:44.769Z,991.38
2018-07-02T04:47:57.175Z,991.4
2018-07-02T04:49:10.340Z,991.37
2018-07-02T04:50:22.856Z,991.34
2018-07-02T04:51:34.761Z,991.32
2018-07-02T04:52:46.584Z,991.37
2018-07-02T04:53:57.961Z,991.34
2018-07-02T04:55:11.063Z,991.31
2018-07-02T04:56:23.709Z,991.32
2018-07-02T04:57:35.655Z,991.29
2018-07-02T04:58:45.528Z,991.3
2018-07-02T04:59:58.579Z,991.33
2018-07-02T05:01:08.437Z,991.36
2018-07-02T05:02:18.509Z,991.33
2018-07-02T05:03:28.578Z,991.39
2018-07-02T05:04:37.822Z,991.33
2018-07-02T05:05:47.946Z,991.36
2018-07-02T05:06:58.012Z,991.32
2018-07-02T05:08:07.814Z,991.35
2018-07-02T05:09:17.883Z,991.36
2018-07-02T05:10:26.879Z,991.34
2018-07-02T05:11:36.492Z,991.34
2018-07-02T05:12:46.544Z,991.38
2018-07-02T05:13:56.348Z,991.39
2018-07-02T05:15:06.152Z,991.36
2018-07-02T05:16:16.241Z,991.36
2018-07-02T05:17:26.095Z,991.34
2018-07-02T05:18:36.149Z,991.35
2018-07-02T05:19:45.941Z,991.31
2018-07-02T05:20:56.015Z,991.29
2018-07-02T05:22:05.544Z,991.33
2018-07-02T05:23:15.117Z,991.29
2018-07-02T05:24:25.194Z,991.31
2018-07-02T05:25:35.194Z,991.28
2018-07-02T05:26:45.004Z,991.3
2018-07-02T05:27:54.553Z,991.24
2018-07-02T05:29:04.818Z,991.28
2018-07-02T05:30:14.612Z,991.25
2018-07-02T05:31:24.415Z,991.27
2018-07-02T05:32:34.182Z,991.24
2018-07-02T05:33:44.247Z,991.26
2018-07-02T05:34:54.104Z,991.25
2018-07-02T05:36:04.173Z,991.24
2018-07-02T05:37:13.702Z,991.24
2018-07-02T05:38:23.494Z,991.25
2018-07-02T05:39:33.557Z,991.25
2018-07-02T05:40:43.417Z,991.24
2018-07-02T05:41:53.488Z,991.17
2018-07-02T05:43:03.015Z,991.23
2018-07-02T05:44:12.825Z,991.16
2018-07-02T05:45:22.887Z,991.24
2018-07-02T05:46:32.486Z,991.19
2018-07-02T05:47:42.564Z,991.18
2018-07-02T05:48:52.684Z,991.22
2018-07-02T05:50:02.752Z,991.19
2018-07-02T05:51:12.284Z,991.21
2018-07-02T05:52:22.132Z,991.2
2018-07-02T05:53:31.942Z,991.21
2018-07-02T05:54:42.000Z,991.15
2018-07-02T05:55:52.106Z,991.18
2018-07-02T05:57:02.165Z,991.19
2018-07-02T05:58:12.398Z,991.14
2018-07-02T05:59:21.911Z,991.14
2018-07-02T06:00:31.521Z,991.17
2018-07-02T06:01:42.122Z,991.14
2018-07-02T06:02:51.930Z,991.15
2018-07-02T06:04:01.502Z,991.15
2018-07-02T06:05:11.667Z,991.16
2018-07-02T06:06:21.746Z,991.13
2018-07-02T06:07:31.871Z,991.15
2018-07-02T06:08:41.658Z,991.13
2018-07-02T06:09:51.505Z,991.14
2018-07-02T06:11:01.307Z,991.12
2018-07-02T06:12:10.828Z,991.13
2018-07-02T06:13:20.642Z,991.13
2018-07-02T06:14:30.463Z,991.16
2018-07-02T06:15:40.054Z,991.14
2018-07-02T06:16:50.130Z,991.12
2018-07-02T06:18:00.203Z,991.13
2018-07-02T06:19:10.012Z,991.1
2018-07-02T06:20:20.096Z,991.03
2018-07-02T06:21:30.227Z,991.09
2018-07-02T06:22:40.292Z,991.05
2018-07-02T06:23:50.380Z,991.02
2018-07-02T06:25:00.469Z,991.05
2018-07-02T06:26:09.989Z,991.03
2018-07-02T06:27:20.100Z,991.09
2018-07-02T06:28:30.165Z,991.07
2018-07-02T06:29:40.245Z,991.04
2018-07-02T06:30:50.333Z,991.03
2018-07-02T06:32:00.403Z,991.02
2018-07-02T06:33:10.253Z,991.01
2018-07-02T06:34:20.332Z,990.95
2018-07-02T06:35:29.844Z,990.98
2018-07-02T06:36:39.631Z,990.96
2018-07-02T06:38:08.665Z,990.97
2018-07-02T06:39:19.078Z,990.93
2018-07-02T06:40:28.832Z,990.92
2018-07-02T06:41:38.624Z,990.92
2018-07-02T06:42:48.425Z,990.94
2018-07-02T06:43:58.295Z,990.95
2018-07-02T06:45:08.358Z,990.9
2018-07-02T06:46:18.414Z,990.91
2018-07-02T06:47:28.480Z,990.94
2018-07-02T06:48:38.529Z,990.9
2018-07-02T06:49:48.398Z,990.9
2018-07-02T06:50:58.210Z,990.91
2018-07-02T06:52:08.294Z,990.89
2018-07-02T06:53:17.542Z,990.92
2018-07-02T06:54:27.350Z,990.9
2018-07-02T06:55:36.923Z,990.93
2018-07-02T06:56:46.716Z,990.88
2018-07-02T06:57:56.781Z,990.88
2018-07-02T06:59:06.299Z,990.87
2018-07-02T07:00:16.366Z,990.9
2018-07-02T07:01:25.965Z,990.88
2018-07-02T07:02:36.010Z,990.87
2018-07-02T07:03:46.080Z,990.88
2018-07-02T07:04:55.885Z,990.87
2018-07-02T07:06:05.952Z,990.9
2018-07-02T07:07:15.278Z,990.88
2018-07-02T07:08:25.350Z,990.85
2018-07-02T07:09:35.550Z,990.83
2018-07-02T07:10:45.366Z,990.85
2018-07-02T07:11:55.173Z,990.88
2018-07-02T07:13:04.760Z,990.86
2018-07-02T07:14:14.837Z,990.86
2018-07-02T07:15:24.648Z,990.87
2018-07-02T07:16:34.895Z,990.81
2018-07-02T07:17:44.969Z,990.84
2018-07-02T07:18:55.100Z,990.8
2018-07-02T07:20:04.639Z,990.78
2018-07-02T07:21:14.179Z,990.79
2018-07-02T07:22:24.248Z,990.76
2018-07-02T07:23:34.051Z,990.75
2018-07-02T07:24:43.903Z,990.7
2018-07-02T07:25:53.992Z,990.66
2018-07-02T07:27:03.832Z,990.68
2018-07-02T07:28:13.677Z,990.61
2018-07-02T07:29:23.751Z,990.62
2018-07-02T07:30:33.601Z,990.6
2018-07-02T07:31:43.707Z,990.59
2018-07-02T07:32:53.506Z,990.59
2018-07-02T07:34:03.592Z,990.57
2018-07-02T07:35:13.663Z,990.54
2018-07-02T07:36:22.958Z,990.55
2018-07-02T07:37:32.902Z,990.52
2018-07-02T07:38:42.749Z,990.59
2018-07-02T07:39:52.842Z,990.59
2018-07-02T07:41:02.385Z,990.55
2018-07-02T07:42:11.696Z,990.51
2018-07-02T07:43:21.764Z,990.5
2018-07-02T07:44:31.829Z,990.47
2018-07-02T07:45:41.382Z,990.48
2018-07-02T07:46:50.935Z,990.43
2018-07-02T07:48:00.529Z,990.43
2018-07-02T07:49:10.581Z,990.41
2018-07-02T07:50:20.402Z,990.36
2018-07-02T07:51:30.214Z,990.32
2018-07-02T07:52:39.745Z,990.32
2018-07-02T07:53:49.603Z,990.3
2018-07-02T07:54:59.680Z,990.29
2018-07-02T07:56:09.810Z,990.31
2018-07-02T07:57:19.623Z,990.28
2018-07-02T07:58:29.699Z,990.24
2018-07-02T07:59:39.816Z,990.22
2018-07-02T08:00:49.886Z,990.2
2018-07-02T08:01:59.945Z,990.19
2018-07-02T08:03:09.725Z,990.2
2018-07-02T08:04:18.991Z,990.12
2018-07-02T08:05:28.851Z,990.17
2018-07-02T08:06:38.641Z,990.09
2018-07-02T08:07:47.905Z,990.13
2018-07-02T08:08:58.038Z,990.1
2018-07-02T08:10:07.868Z,990.11
2018-07-02T08:11:17.848Z,990.11
2018-07-02T08:12:27.917Z,990.08
2018-07-02T08:13:38.152Z,990.12
2018-07-02T08:14:48.217Z,990.1
2018-07-02T08:15:57.747Z,990.07
2018-07-02T08:17:07.587Z,990.05
2018-07-02T08:18:17.388Z,990.04
2018-07-02T08:19:27.450Z,990.07
2018-07-02T08:20:37.244Z,990.02
2018-07-02T08:21:47.061Z,990.05
2018-07-02T08:22:57.209Z,990.06
2018-07-02T08:24:07.275Z,990.06
2018-07-02T08:25:17.093Z,990.03
2018-07-02T08:26:26.895Z,990.04
2018-07-02T08:27:36.691Z,989.94
2018-07-02T08:28:46.549Z,989.95
2018-07-02T08:29:56.337Z,989.96
2018-07-02T08:31:06.142Z,989.89
2018-07-02T08:32:15.953Z,989.91
2018-07-02T08:33:25.761Z,989.91
2018-07-02T08:34:35.887Z,989.91
2018-07-02T08:35:45.705Z,989.86
2018-07-02T08:36:55.516Z,989.88
2018-07-02T08:38:05.080Z,989.84
2018-07-02T08:39:14.881Z,989.78
2018-07-02T08:40:24.723Z,989.78
2018-07-02T08:41:34.798Z,989.79
2018-07-02T08:42:44.338Z,989.79
2018-07-02T08:43:54.419Z,989.76
2018-07-02T08:45:03.942Z,989.77
2018-07-02T08:46:14.151Z,989.72
2018-07-02T08:47:23.679Z,989.71
2018-07-02T08:48:33.770Z,989.72
2018-07-02T08:49:43.838Z,989.73
2018-07-02T08:50:53.640Z,989.71
2018-07-02T08:52:03.501Z,989.71
2018-07-02T08:53:12.779Z,989.65
2018-07-02T08:54:22.589Z,989.65
2018-07-02T08:55:32.680Z,989.64
2018-07-02T08:56:42.766Z,989.65
2018-07-02T08:57:52.616Z,989.66
2018-07-02T08:59:02.421Z,989.64
2018-07-02T09:00:12.504Z,989.63
2018-07-02T09:01:22.305Z,989.59
2018-07-02T09:02:32.396Z,989.59
2018-07-02T09:03:42.256Z,989.6
2018-07-02T09:04:52.410Z,989.57
2018-07-02T09:06:01.942Z,989.52
2018-07-02T09:07:11.505Z,989.51
2018-07-02T09:08:21.590Z,989.55
2018-07-02T09:09:31.832Z,989.49
2018-07-02T09:10:41.363Z,989.48
2018-07-02T09:11:51.462Z,989.46
2018-07-02T09:13:01.534Z,989.47
2018-07-02T09:14:11.063Z,989.45
2018-07-02T09:15:21.253Z,989.43
2018-07-02T09:16:30.806Z,989.43
2018-07-02T09:17:40.650Z,989.43
2018-07-02T09:18:50.631Z,989.39
2018-07-02T09:20:00.474Z,989.4
2018-07-02T09:21:10.328Z,989.36
2018-07-02T09:22:20.135Z,989.38
2018-07-02T09:23:29.937Z,989.36
2018-07-02T09:24:39.740Z,989.37
2018-07-02T09:25:49.838Z,989.34
2018-07-02T09:26:59.962Z,989.31
2018-07-02T09:28:09.770Z,989.3
2018-07-02T09:29:19.845Z,989.29
2018-07-02T09:30:29.666Z,989.3
2018-07-02T09:31:39.464Z,989.27
2018-07-02T09:32:49.591Z,989.29
2018-07-02T09:33:59.153Z,989.29
2018-07-02T09:35:08.955Z,989.25
2018-07-02T09:36:18.762Z,989.25
2018-07-02T09:37:28.574Z,989.23
2018-07-02T09:38:38.426Z,989.24
2018-07-02T09:39:47.706Z,989.23
2018-07-02T09:40:57.957Z,989.26
2018-07-02T09:42:08.041Z,989.22
2018-07-02T09:43:17.859Z,989.18
2018-07-02T09:44:27.716Z,989.19
2018-07-02T09:45:37.795Z,989.18
2018-07-02T09:46:47.894Z,989.14
2018-07-02T09:47:57.830Z,989.12
2018-07-02T09:49:08.051Z,989.17
2018-07-02T09:50:18.168Z,989.15
2018-07-02T09:51:28.249Z,989.13
2018-07-02T09:52:38.316Z,989.11
2018-07-02T09:53:47.587Z,989.07
2018-07-02T09:54:57.382Z,989.1
2018-07-02T09:56:07.246Z,989.1
2018-07-02T09:57:17.059Z,989.08
2018-07-02T09:58:27.137Z,989.07
2018-07-02T09:59:37.209Z,989.08
2018-07-02T10:00:47.344Z,989.04
2018-07-02T10:01:57.142Z,989.01
2018-07-02T10:03:07.280Z,989.02
2018-07-02T10:04:17.405Z,988.99
2018-07-02T10:05:27.190Z,989
2018-07-02T10:06:37.019Z,988.94
2018-07-02T10:07:47.379Z,988.95
2018-07-02T10:08:57.444Z,988.9
2018-07-02T10:10:07.290Z,988.89
2018-07-02T10:11:17.609Z,988.88
2018-07-02T10:12:27.451Z,988.84
2018-07-02T10:13:37.489Z,988.81
2018-07-02T10:14:47.553Z,988.83
2018-07-02T10:15:57.344Z,988.79
2018-07-02T10:17:07.427Z,988.79
2018-07-02T10:18:17.224Z,988.73
2018-07-02T10:19:27.364Z,988.72
2018-07-02T10:20:37.462Z,988.71
2018-07-02T10:21:47.521Z,988.69
2018-07-02T10:22:57.589Z,988.64
2018-07-02T10:24:07.405Z,988.65
2018-07-02T10:25:16.714Z,988.65
2018-07-02T10:26:26.527Z,988.65
2018-07-02T10:27:35.802Z,988.61
2018-07-02T10:28:45.887Z,988.53
2018-07-02T10:29:55.963Z,988.5
2018-07-02T10:31:05.841Z,988.52
2018-07-02T10:32:16.056Z,988.49
2018-07-02T10:33:25.853Z,988.45
2018-07-02T10:34:35.652Z,988.47
2018-07-02T10:35:45.895Z,988.42
2018-07-02T10:36:55.479Z,988.44
2018-07-02T10:38:05.282Z,988.43
2018-07-02T10:39:15.346Z,988.42
2018-07-02T10:40:25.159Z,988.38
2018-07-02T10:41:34.964Z,988.42
2018-07-02T10:42:45.095Z,988.42
2018-07-02T10:43:55.153Z,988.39
2018-07-02T10:45:04.956Z,988.42
2018-07-02T10:46:14.773Z,988.38
2018-07-02T10:47:24.578Z,988.35
2018-07-02T10:48:33.890Z,988.38
2018-07-02T10:49:43.965Z,988.34
2018-07-02T10:50:54.070Z,988.34
2018-07-02T10:52:03.887Z,988.32
2018-07-02T10:53:13.688Z,988.3
2018-07-02T10:54:23.806Z,988.3
2018-07-02T10:55:33.935Z,988.26
2018-07-02T10:56:43.546Z,988.3
2018-07-02T10:57:53.629Z,988.22
2018-07-02T10:59:03.696Z,988.23
2018-07-02T11:00:13.844Z,988.23
2018-07-02T11:01:23.713Z,988.21
2018-07-02T11:02:33.116Z,988.2
2018-07-02T11:03:43.207Z,988.2
2018-07-02T11:04:53.053Z,988.19
2018-07-02T11:06:03.237Z,988.17
2018-07-02T11:07:13.042Z,988.17
2018-07-02T11:08:22.832Z,988.12
2018-07-02T11:09:32.919Z,988.13
2018-07-02T11:10:42.983Z,988.11
2018-07-02T11:11:52.837Z,988.04
2018-07-02T11:13:02.925Z,988.06
2018-07-02T11:14:12.747Z,988.04
2018-07-02T11:15:22.561Z,988.04
2018-07-02T11:16:32.092Z,987.99
2018-07-02T11:17:42.225Z,987.99
2018-07-02T11:18:52.020Z,988.02
2018-07-02T11:20:02.113Z,987.98
2018-07-02T11:21:11.368Z,987.94
2018-07-02T11:22:21.442Z,987.95
2018-07-02T11:23:31.023Z,987.92
2018-07-02T11:24:40.911Z,987.88
2018-07-02T11:25:50.441Z,987.9
2018-07-02T11:27:00.521Z,987.87
2018-07-02T11:28:10.326Z,987.85
2018-07-02T11:29:20.192Z,987.82
2018-07-02T11:30:29.980Z,987.77
2018-07-02T11:31:40.070Z,987.78
2018-07-02T11:32:49.904Z,987.78
2018-07-02T11:33:59.991Z,987.78
2018-07-02T11:35:09.582Z,987.76
2018-07-02T11:36:18.854Z,987.74
2018-07-02T11:37:28.439Z,987.71
2018-07-02T11:38:38.403Z,987.7
2018-07-02T11:39:48.202Z,987.68
2018-07-02T11:40:57.528Z,987.69
2018-07-02T11:42:07.601Z,987.73
2018-07-02T11:43:17.420Z,987.75
2018-07-02T11:44:27.508Z,987.75
2018-07-02T11:45:37.579Z,987.84
2018-07-02T11:46:47.687Z,987.8
2018-07-02T11:47:57.502Z,987.77
2018-07-02T11:49:07.581Z,987.79
2018-07-02T11:50:17.657Z,987.69
2018-07-02T11:51:27.754Z,987.68
2018-07-02T11:52:37.889Z,987.68
2018-07-02T11:53:47.707Z,987.6
2018-07-02T11:54:57.773Z,987.55
2018-07-02T11:56:07.604Z,987.61
2018-07-02T11:57:17.711Z,987.57
2018-07-02T11:58:27.698Z,987.58
2018-07-02T11:59:37.777Z,987.49
2018-07-02T12:00:47.879Z,987.51
2018-07-02T12:01:58.086Z,987.55
2018-07-02T12:03:08.068Z,987.48
2018-07-02T12:04:18.024Z,987.52
2018-07-02T12:05:27.846Z,987.47
2018-07-02T12:06:37.371Z,987.53
2018-07-02T12:07:46.920Z,987.47
2018-07-02T12:08:56.997Z,987.41
2018-07-02T12:10:06.874Z,987.32
2018-07-02T12:11:16.964Z,987.36
2018-07-02T12:12:26.768Z,987.4
2018-07-02T12:13:36.566Z,987.36
2018-07-02T12:14:46.656Z,987.31
2018-07-02T12:15:56.527Z,987.32
2018-07-02T12:17:06.079Z,987.35
2018-07-02T12:18:16.170Z,987.26
2018-07-02T12:19:25.999Z,987.18
2018-07-02T12:20:35.537Z,987.21
2018-07-02T12:21:45.663Z,987.18
2018-07-02T12:22:55.225Z,987.15
2018-07-02T12:24:04.771Z,987.15
2018-07-02T12:25:14.321Z,987.13
2018-07-02T12:26:24.123Z,987.11
2018-07-02T12:27:34.008Z,987.13
2018-07-02T12:28:44.092Z,987.06
2018-07-02T12:29:53.631Z,987.06
2018-07-02T12:31:03.742Z,987.05
2018-07-02T12:32:13.810Z,987.07
2018-07-02T12:33:23.724Z,987.09
2018-07-02T12:34:34.100Z,987.03
2018-07-02T12:35:43.923Z,987.03
2018-07-02T12:36:53.473Z,987
2018-07-02T12:38:03.576Z,986.97
2018-07-02T12:39:13.447Z,986.94
2018-07-02T12:40:23.008Z,986.91
2018-07-02T12:41:33.103Z,986.92
2018-07-02T12:42:42.651Z,986.9
2018-07-02T12:43:52.745Z,986.9
2018-07-02T12:45:02.351Z,986.82
2018-07-02T12:46:12.453Z,986.82
2018-07-02T12:47:22.551Z,986.77
2018-07-02T12:48:32.620Z,986.75
2018-07-02T12:49:42.448Z,986.68
2018-07-02T12:50:52.585Z,986.65
2018-07-02T12:52:02.392Z,986.68
2018-07-02T12:53:12.209Z,986.56
2018-07-02T12:54:22.420Z,986.66
2018-07-02T12:55:33.083Z,986.67
2018-07-02T12:56:42.940Z,986.61
2018-07-02T12:57:53.027Z,986.66
2018-07-02T12:59:02.846Z,986.65
2018-07-02T13:00:12.949Z,986.66
2018-07-02T13:01:23.051Z,986.71
2018-07-02T13:02:33.206Z,986.72
2018-07-02T13:03:43.043Z,986.69
2018-07-02T13:04:52.318Z,986.64
2018-07-02T13:06:02.143Z,986.54
2018-07-02T13:07:11.422Z,986.62
2018-07-02T13:08:21.029Z,986.64
2018-07-02T13:09:30.320Z,986.56
2018-07-02T13:10:40.411Z,986.61
2018-07-02T13:11:49.965Z,986.53
2018-07-02T13:12:59.795Z,986.57
2018-07-02T13:14:09.405Z,986.52
2018-07-02T13:15:19.221Z,986.46
2018-07-02T13:16:29.331Z,986.52
2018-07-02T13:17:39.426Z,986.49
2018-07-02T13:18:48.700Z,986.6
2018-07-02T13:19:58.835Z,986.6
2018-07-02T13:21:08.943Z,986.52
2018-07-02T13:22:19.200Z,986.5
2018-07-02T13:23:29.097Z,986.53
2018-07-02T13:24:38.922Z,986.59
2018-07-02T13:25:49.109Z,986.56
2018-07-02T13:26:59.230Z,986.64
2018-07-02T13:28:09.348Z,986.61
2018-07-02T13:29:19.440Z,986.64
2018-07-02T13:30:29.253Z,986.66
2018-07-02T13:31:38.865Z,986.71
2018-07-02T13:32:48.717Z,986.78
2018-07-02T13:33:58.816Z,986.82
2018-07-02T13:35:08.927Z,986.85
2018-07-02T13:36:18.546Z,986.91
2018-07-02T13:37:28.642Z,986.95
2018-07-02T13:38:38.828Z,986.92
2018-07-02T13:39:48.387Z,986.88
2018-07-02T13:40:57.957Z,986.8
2018-07-02T13:42:08.062Z,986.95
2018-07-02T13:43:17.671Z,987.03
2018-07-02T13:44:27.796Z,986.95
2018-07-02T13:45:37.355Z,986.93
2018-07-02T13:46:47.472Z,986.95
2018-07-02T13:47:57.577Z,986.92
2018-07-02T13:49:06.910Z,986.89
2018-07-02T13:50:17.049Z,986.73
2018-07-02T13:51:26.341Z,986.67
2018-07-02T13:52:36.454Z,986.82
2018-07-02T13:53:46.554Z,986.73
2018-07-02T13:54:56.692Z,986.75
2018-07-02T13:56:06.517Z,986.79
2018-07-02T13:57:16.623Z,986.81
2018-07-02T13:58:26.452Z,986.8
2018-07-02T13:59:36.017Z,986.83
2018-07-02T14:00:46.170Z,986.85
2018-07-02T14:01:56.256Z,986.78
2018-07-02T14:03:05.546Z,986.75
2018-07-02T14:04:15.645Z,986.74
2018-07-02T14:05:25.757Z,986.7
2018-07-02T14:06:35.922Z,986.7
2018-07-02T14:07:46.027Z,986.68
2018-07-02T14:08:56.137Z,986.64
2018-07-02T14:10:05.955Z,986.64
2018-07-02T14:11:15.772Z,986.6
2018-07-02T14:12:25.648Z,986.59
2018-07-02T14:13:35.740Z,986.54
2018-07-02T14:14:45.840Z,986.47
2018-07-02T14:15:55.920Z,986.34
2018-07-02T14:17:05.759Z,986.31
2018-07-02T14:18:15.656Z,986.19
2018-07-02T14:19:25.753Z,986.14
2018-07-02T14:20:35.034Z,986.12
2018-07-02T14:21:45.106Z,986.1
2018-07-02T14:22:54.930Z,986.05
2018-07-02T14:24:04.540Z,986.13
2018-07-02T14:25:14.365Z,986.15
2018-07-02T14:26:24.489Z,986.17
2018-07-02T14:27:34.047Z,986.17
2018-07-02T14:28:43.623Z,986.3
2018-07-02T14:29:53.237Z,986.25
2018-07-02T14:31:03.052Z,986.1
2018-07-02T14:32:12.907Z,986.02
2018-07-02T14:33:22.727Z,986.14
2018-07-02T14:34:32.543Z,986.39
2018-07-02T14:35:41.872Z,986.47
2018-07-02T14:36:51.709Z,986.39
2018-07-02T14:38:01.807Z,986.57
2018-07-02T14:39:11.624Z,986.73
2018-07-02T14:40:22.049Z,986.87
2018-07-02T14:41:32.198Z,986.83
2018-07-02T14:42:42.026Z,986.78